createdAt,value
2018-04-30T00:01:53.573Z,14.47
2018-04-30T00:04:20.151Z,15.17
2018-04-30T00:06:46.725Z,13.73
2018-04-30T00:09:13.324Z,12.30
2018-04-30T00:11:39.922Z,14.20
2018-04-30T00:14:06.505Z,16.23
2018-04-30T00:16:34.001Z,17.77
2018-04-30T00:19:00.594Z,19.60
2018-04-30T00:21:27.169Z,19.20
2018-04-30T00:23:53.897Z,20.70
2018-04-30T00:26:20.481Z,20.57
2018-04-30T00:28:47.064Z,23.93
2018-04-30T00:31:13.657Z,21.73
2018-04-30T00:33:41.275Z,22.77
2018-04-30T00:36:07.829Z,18.80
2018-04-30T00:38:34.406Z,21.43
2018-04-30T00:41:00.990Z,19.40
2018-04-30T00:43:27.565Z,13.87
2018-04-30T00:45:54.128Z,13.43
2018-04-30T00:48:20.980Z,10.07
2018-04-30T00:50:47.572Z,7.50
2018-04-30T00:53:14.141Z,11.30
2018-04-30T00:55:40.701Z,10.10
2018-04-30T00:58:07.282Z,11.47
2018-04-30T01:00:33.845Z,10.07
2018-04-30T01:03:00.429Z,12.00
2018-04-30T01:05:27.019Z,12.63
2018-04-30T01:07:53.639Z,12.07
2018-04-30T01:10:20.277Z,13.13
2018-04-30T01:12:46.855Z,13.30
2018-04-30T01:15:13.437Z,12.73
2018-04-30T01:17:40.009Z,12.43
2018-04-30T01:20:06.590Z,11.70
2018-04-30T01:22:33.165Z,12.13
2018-04-30T01:24:59.758Z,13.70
2018-04-30T01:27:26.334Z,15.13
2018-04-30T01:29:52.916Z,15.33
2018-04-30T01:32:19.484Z,14.30
2018-04-30T01:34:46.065Z,12.97
2018-04-30T01:37:12.640Z,14.40
2018-04-30T01:39:39.236Z,14.20
2018-04-30T01:42:05.890Z,15.23
2018-04-30T01:44:32.466Z,16.57
2018-04-30T01:46:59.090Z,16.33
2018-04-30T01:49:25.677Z,20.93
2018-04-30T01:51:52.300Z,18.03
2018-04-30T01:54:18.854Z,18.30
2018-04-30T01:56:45.434Z,19.90
2018-04-30T01:59:13.653Z,19.60
2018-04-30T02:01:40.687Z,21.70
2018-04-30T02:04:07.280Z,20.90
2018-04-30T02:06:33.842Z,23.33
2018-04-30T02:09:00.417Z,20.27
2018-04-30T02:11:27.628Z,23.40
2018-04-30T02:13:54.256Z,24.20
2018-04-30T02:16:20.845Z,21.03
2018-04-30T02:18:47.411Z,21.83
2018-04-30T02:21:13.989Z,23.10
2018-04-30T02:23:40.569Z,20.30
2018-04-30T02:26:07.151Z,19.70
2018-04-30T02:28:33.733Z,17.43
2018-04-30T02:31:00.306Z,16.20
2018-04-30T02:33:26.894Z,18.50
2018-04-30T02:35:53.473Z,16.30
2018-04-30T02:38:20.045Z,16.23
2018-04-30T02:40:46.626Z,17.17
2018-04-30T02:43:13.210Z,17.40
2018-04-30T02:45:39.799Z,21.07
2018-04-30T02:48:06.485Z,17.93
2018-04-30T02:50:33.049Z,17.53
2018-04-30T02:52:59.629Z,18.50
2018-04-30T02:55:26.199Z,18.03
2018-04-30T02:57:52.777Z,19.97
2018-04-30T03:00:19.369Z,19.13
2018-04-30T03:02:45.942Z,17.77
2018-04-30T03:05:12.514Z,20.20
2018-04-30T03:07:39.088Z,19.43
2018-04-30T03:10:05.665Z,18.00
2018-04-30T03:12:32.298Z,18.40
2018-04-30T03:14:58.853Z,20.30
2018-04-30T03:17:25.438Z,19.07
2018-04-30T03:19:52.041Z,22.30
2018-04-30T03:22:18.614Z,21.90
2018-04-30T03:24:45.218Z,20.30
2018-04-30T03:27:11.782Z,19.70
2018-04-30T03:29:38.363Z,18.90
2018-04-30T03:32:04.950Z,18.80
2018-04-30T03:34:31.603Z,20.13
2018-04-30T03:36:58.181Z,33.83
2018-04-30T03:39:24.765Z,21.40
2018-04-30T03:41:51.351Z,19.30
2018-04-30T03:44:17.926Z,18.27
2018-04-30T03:46:44.498Z,18.77
2018-04-30T03:49:11.109Z,12.33
2018-04-30T03:51:37.751Z,9.27
2018-04-30T03:54:04.821Z,6.07
2018-04-30T03:56:31.385Z,5.97
2018-04-30T03:58:57.953Z,4.80
2018-04-30T04:01:30.329Z,2.87
2018-04-30T04:04:02.884Z,2.73
2018-04-30T04:06:35.320Z,2.90
2018-04-30T04:09:01.914Z,2.17
2018-04-30T04:11:28.529Z,2.30
2018-04-30T04:13:55.102Z,3.73
2018-04-30T04:16:21.680Z,1.70
2018-04-30T04:18:48.241Z,1.70
2018-04-30T04:21:14.832Z,2.87
2018-04-30T04:23:41.418Z,1.53
2018-04-30T04:26:07.985Z,1.40
2018-04-30T04:28:34.597Z,1.33
2018-04-30T04:31:01.169Z,1.73
2018-04-30T04:33:27.732Z,1.47
2018-04-30T04:35:54.313Z,1.20
2018-04-30T04:38:20.897Z,1.30
2018-04-30T04:40:47.457Z,3.37
2018-04-30T04:43:14.052Z,1.30
2018-04-30T04:45:40.621Z,2.33
2018-04-30T04:48:07.193Z,1.13
2018-04-30T04:50:33.767Z,2.10
2018-04-30T04:53:00.369Z,1.40
2018-04-30T04:55:26.933Z,1.27
2018-04-30T04:57:53.511Z,2.03
2018-04-30T05:00:20.090Z,1.10
2018-04-30T05:02:47.633Z,1.33
2018-04-30T05:05:14.217Z,1.30
2018-04-30T05:07:40.817Z,1.50
2018-04-30T05:10:10.885Z,1.53
2018-04-30T05:12:37.444Z,2.23
2018-04-30T05:15:04.009Z,1.40
2018-04-30T05:17:30.579Z,1.50
2018-04-30T05:19:57.160Z,1.20
2018-04-30T05:22:23.726Z,1.20
2018-04-30T05:24:50.295Z,2.80
2018-04-30T05:27:16.879Z,2.40
2018-04-30T05:29:43.444Z,1.30
2018-04-30T05:32:10.017Z,4.53
2018-04-30T05:34:36.636Z,1.43
2018-04-30T05:37:03.196Z,1.57
2018-04-30T05:39:29.783Z,2.70
2018-04-30T05:41:56.333Z,1.53
2018-04-30T05:44:22.901Z,2.13
2018-04-30T05:46:49.491Z,2.60
2018-04-30T05:49:16.053Z,1.90
2018-04-30T05:51:43.625Z,1.30
2018-04-30T05:54:10.194Z,1.93
2018-04-30T05:56:36.761Z,1.83
2018-04-30T05:59:03.353Z,1.70
2018-04-30T06:01:29.920Z,1.47
2018-04-30T06:03:56.486Z,2.00
2018-04-30T06:06:23.077Z,1.90
2018-04-30T06:08:50.870Z,2.67
2018-04-30T06:11:17.430Z,1.90
2018-04-30T06:13:44.033Z,1.53
2018-04-30T06:16:10.628Z,1.83
2018-04-30T06:18:37.263Z,1.40
2018-04-30T06:21:03.817Z,3.03
2018-04-30T06:23:30.469Z,2.13
2018-04-30T06:25:57.112Z,1.30
2018-04-30T06:28:23.680Z,3.40
2018-04-30T06:30:50.257Z,1.87
2018-04-30T06:33:16.825Z,1.37
2018-04-30T06:35:43.401Z,1.17
2018-04-30T06:38:09.981Z,1.13
2018-04-30T06:40:36.856Z,1.07
2018-04-30T06:43:03.501Z,1.10
2018-04-30T06:45:30.085Z,1.10
2018-04-30T06:47:56.649Z,1.20
2018-04-30T06:50:24.079Z,1.13
2018-04-30T06:52:50.782Z,1.20
2018-04-30T06:55:17.326Z,4.70
2018-04-30T06:57:43.897Z,1.30
2018-04-30T07:00:10.473Z,1.20
2018-04-30T07:02:37.068Z,1.33
2018-04-30T07:05:03.673Z,1.70
2018-04-30T07:07:30.233Z,1.63
2018-04-30T07:09:56.812Z,1.50
2018-04-30T07:12:23.394Z,1.30
2018-04-30T07:14:49.971Z,2.60
2018-04-30T07:17:17.194Z,1.80
2018-04-30T07:19:43.833Z,1.90
2018-04-30T07:22:10.397Z,2.93
2018-04-30T07:24:36.978Z,1.50
2018-04-30T07:27:03.573Z,1.47
2018-04-30T07:29:30.415Z,1.23
2018-04-30T07:31:56.986Z,1.57
2018-04-30T07:34:23.561Z,1.17
2018-04-30T07:36:50.766Z,1.30
2018-04-30T07:39:17.347Z,1.30
2018-04-30T07:41:43.950Z,1.20
2018-04-30T07:44:10.529Z,4.30
2018-04-30T07:46:37.107Z,1.80
2018-04-30T07:49:03.665Z,1.20
2018-04-30T07:51:30.236Z,2.10
2018-04-30T07:53:56.809Z,3.27
2018-04-30T07:56:24.153Z,2.17
2018-04-30T07:58:50.730Z,3.53
2018-04-30T08:01:17.285Z,3.50
2018-04-30T08:03:43.863Z,1.97
2018-04-30T08:06:10.477Z,1.30
2018-04-30T08:08:37.042Z,1.27
2018-04-30T08:11:03.616Z,2.13
2018-04-30T08:13:30.197Z,1.40
2018-04-30T08:15:56.766Z,1.30
2018-04-30T08:18:24.298Z,2.00
2018-04-30T08:20:50.857Z,1.20
2018-04-30T08:23:17.419Z,1.53
2018-04-30T08:25:44.004Z,1.40
2018-04-30T08:28:10.577Z,2.83
2018-04-30T08:30:37.157Z,1.40
2018-04-30T08:33:03.721Z,1.57
2018-04-30T08:35:30.301Z,1.50
2018-04-30T08:37:56.901Z,1.37
2018-04-30T08:40:23.470Z,1.70
2018-04-30T08:42:50.051Z,2.20
2018-04-30T08:45:16.617Z,2.23
2018-04-30T08:47:43.185Z,1.37
2018-04-30T08:50:09.757Z,1.43
2018-04-30T08:52:36.338Z,1.30
2018-04-30T08:55:02.911Z,1.53
2018-04-30T08:57:29.485Z,1.37
2018-04-30T08:59:56.053Z,1.20
2018-04-30T09:02:22.641Z,1.10
2018-04-30T09:04:49.215Z,1.00
2018-04-30T09:07:15.784Z,1.20
2018-04-30T09:09:42.367Z,1.43
2018-04-30T09:12:08.920Z,0.90
2018-04-30T09:14:35.501Z,1.00
2018-04-30T09:17:02.062Z,1.70
2018-04-30T09:19:28.644Z,0.90
2018-04-30T09:21:55.209Z,2.93
2018-04-30T09:24:21.790Z,1.07
2018-04-30T09:26:48.454Z,0.90
2018-04-30T09:29:15.027Z,1.27
2018-04-30T09:31:41.593Z,0.90
2018-04-30T09:34:08.168Z,1.30
2018-04-30T09:36:34.741Z,2.00
2018-04-30T09:39:01.321Z,2.30
2018-04-30T09:41:27.889Z,0.90
2018-04-30T09:43:54.461Z,4.50
2018-04-30T09:46:21.042Z,1.00
2018-04-30T09:48:47.606Z,3.13
2018-04-30T09:51:14.173Z,1.37
2018-04-30T09:53:40.753Z,1.27
2018-04-30T09:56:07.633Z,0.90
2018-04-30T09:58:34.206Z,1.10
2018-04-30T10:01:00.820Z,3.40
2018-04-30T10:03:27.393Z,0.90
2018-04-30T10:05:53.965Z,3.03
2018-04-30T10:08:20.557Z,2.40
2018-04-30T10:10:47.149Z,2.40
2018-04-30T10:13:13.721Z,1.03
2018-04-30T10:15:40.285Z,1.10
2018-04-30T10:18:06.881Z,1.27
2018-04-30T10:20:33.481Z,1.27
2018-04-30T10:23:00.052Z,1.00
2018-04-30T10:25:26.624Z,2.63
2018-04-30T10:27:53.209Z,1.93
2018-04-30T10:30:19.781Z,2.93
2018-04-30T10:32:46.358Z,1.83
2018-04-30T10:35:12.929Z,3.03
2018-04-30T10:37:39.494Z,2.10
2018-04-30T10:40:06.063Z,1.40
2018-04-30T10:42:32.645Z,1.60
2018-04-30T10:44:59.223Z,2.33
2018-04-30T10:47:25.794Z,3.53
2018-04-30T10:49:52.401Z,5.60
2018-04-30T10:52:18.985Z,2.10
2018-04-30T10:54:45.563Z,2.73
2018-04-30T10:57:12.157Z,5.60
2018-04-30T10:59:38.739Z,4.07
2018-04-30T11:02:05.305Z,5.43
2018-04-30T11:04:31.881Z,1.30
2018-04-30T11:06:58.530Z,5.70
2018-04-30T11:09:25.103Z,1.23
2018-04-30T11:11:52.061Z,1.13
2018-04-30T11:14:18.633Z,1.00
2018-04-30T11:16:45.201Z,2.47
2018-04-30T11:19:11.792Z,1.20
2018-04-30T11:21:38.365Z,2.10
2018-04-30T11:24:04.938Z,1.37
2018-04-30T11:26:31.502Z,1.20
2018-04-30T11:28:58.077Z,2.60
2018-04-30T11:31:24.653Z,1.23
2018-04-30T11:33:51.233Z,1.37
2018-04-30T11:36:17.800Z,1.00
2018-04-30T11:38:44.401Z,1.47
2018-04-30T11:41:10.973Z,0.93
2018-04-30T11:43:37.541Z,1.60
2018-04-30T11:46:04.121Z,0.90
2018-04-30T11:48:30.685Z,1.43
2018-04-30T11:50:57.265Z,2.40
2018-04-30T11:53:23.832Z,1.87
2018-04-30T11:55:50.450Z,1.00
2018-04-30T11:58:17.037Z,0.97
2018-04-30T12:00:43.586Z,0.80
2018-04-30T12:03:10.153Z,2.53
2018-04-30T12:05:36.723Z,4.40
2018-04-30T12:08:03.297Z,4.00
2018-04-30T12:10:29.873Z,1.23
2018-04-30T12:12:56.453Z,1.93
2018-04-30T12:15:23.048Z,1.10
2018-04-30T12:17:49.709Z,0.80
2018-04-30T12:20:16.265Z,2.10
2018-04-30T12:22:42.847Z,1.67
2018-04-30T12:25:09.890Z,0.87
2018-04-30T12:27:36.469Z,2.50
2018-04-30T12:30:03.055Z,4.40
2018-04-30T12:32:29.619Z,0.83
2018-04-30T12:34:56.210Z,2.50
2018-04-30T12:37:22.774Z,2.93
2018-04-30T12:39:49.404Z,1.90
2018-04-30T12:42:15.978Z,1.00
2018-04-30T12:44:42.550Z,1.10
2018-04-30T12:47:09.121Z,0.90
2018-04-30T12:49:35.842Z,11.50
2018-04-30T12:52:02.369Z,2.50
2018-04-30T12:54:28.957Z,1.60
2018-04-30T12:56:55.529Z,0.80
2018-04-30T12:59:22.103Z,1.70
2018-04-30T13:01:48.674Z,0.93
2018-04-30T13:04:15.243Z,2.10
2018-04-30T13:06:41.865Z,1.07
2018-04-30T13:09:08.464Z,1.57
2018-04-30T13:11:35.010Z,1.47
2018-04-30T13:14:01.578Z,1.10
2018-04-30T13:16:28.147Z,1.77
2018-04-30T13:18:54.720Z,1.73
2018-04-30T13:21:21.281Z,2.10
2018-04-30T13:23:47.889Z,0.80
2018-04-30T13:26:14.478Z,4.27
2018-04-30T13:28:41.111Z,9.30
2018-04-30T13:31:07.613Z,1.07
2018-04-30T13:33:34.186Z,1.57
2018-04-30T13:36:00.750Z,1.53
2018-04-30T13:38:27.325Z,2.00
2018-04-30T13:40:53.901Z,7.73
2018-04-30T13:43:20.512Z,1.20
2018-04-30T13:45:47.069Z,5.30
2018-04-30T13:48:13.640Z,2.20
2018-04-30T13:50:40.237Z,1.10
2018-04-30T13:53:06.881Z,1.07
2018-04-30T13:55:33.433Z,0.80
2018-04-30T13:57:59.997Z,0.80
2018-04-30T14:00:26.629Z,0.70
2018-04-30T14:02:53.170Z,1.57
2018-04-30T14:05:19.741Z,6.53
2018-04-30T14:07:46.313Z,0.97
2018-04-30T14:10:12.887Z,0.83
2018-04-30T14:12:39.462Z,2.93
2018-04-30T14:15:06.036Z,0.80
2018-04-30T14:17:32.597Z,1.67
2018-04-30T14:19:59.162Z,0.90
2018-04-30T14:22:25.730Z,2.20
2018-04-30T14:24:52.309Z,0.80
2018-04-30T14:27:18.877Z,3.60
2018-04-30T14:29:45.442Z,0.97
2018-04-30T14:32:12.011Z,0.97
2018-04-30T14:34:38.579Z,0.57
2018-04-30T14:37:05.163Z,0.70
2018-04-30T14:39:31.748Z,1.80
2018-04-30T14:41:58.305Z,1.60
2018-04-30T14:44:24.912Z,2.30
2018-04-30T14:46:51.456Z,0.70
2018-04-30T14:49:18.038Z,0.70
2018-04-30T14:51:44.609Z,1.80
2018-04-30T14:54:11.241Z,3.70
2018-04-30T14:56:37.851Z,0.80
2018-04-30T14:59:04.405Z,0.60
2018-04-30T15:01:30.978Z,0.70
2018-04-30T15:03:57.549Z,2.10
2018-04-30T15:06:24.122Z,0.70
2018-04-30T15:08:50.721Z,1.03
2018-04-30T15:11:17.297Z,0.80
2018-04-30T15:13:43.862Z,6.97
2018-04-30T15:16:10.444Z,1.00
2018-04-30T15:18:37.020Z,1.00
2018-04-30T15:21:03.589Z,0.70
2018-04-30T15:23:30.165Z,0.80
2018-04-30T15:25:56.747Z,2.03
2018-04-30T15:28:23.321Z,2.17
2018-04-30T15:30:49.885Z,2.40
2018-04-30T15:33:16.480Z,0.90
2018-04-30T15:35:43.132Z,0.90
2018-04-30T15:38:09.669Z,0.80
2018-04-30T15:40:36.368Z,0.67
2018-04-30T15:43:02.938Z,0.70
2018-04-30T15:45:29.506Z,1.47
2018-04-30T15:47:56.101Z,1.60
2018-04-30T15:50:22.666Z,1.87
2018-04-30T15:52:49.238Z,2.30
2018-04-30T15:55:15.818Z,2.10
2018-04-30T15:57:42.414Z,0.77
2018-04-30T16:00:08.981Z,0.70
2018-04-30T16:02:35.555Z,1.13
2018-04-30T16:05:02.146Z,0.60
2018-04-30T16:07:28.690Z,0.80
2018-04-30T16:09:55.269Z,1.23
2018-04-30T16:12:21.831Z,0.70
2018-04-30T16:14:48.457Z,0.77
2018-04-30T16:17:15.021Z,0.70
2018-04-30T16:19:42.079Z,1.97
2018-04-30T16:22:08.667Z,0.70
2018-04-30T16:24:35.258Z,2.40
2018-04-30T16:27:01.825Z,1.03
2018-04-30T16:29:28.397Z,1.73
2018-04-30T16:31:54.969Z,0.90
2018-04-30T16:34:21.540Z,1.20
2018-04-30T16:36:48.128Z,1.00
2018-04-30T16:39:14.697Z,2.97
2018-04-30T16:41:41.311Z,2.00
2018-04-30T16:44:07.893Z,0.60
2018-04-30T16:46:34.484Z,0.70
2018-04-30T16:49:01.061Z,0.90
2018-04-30T16:51:27.633Z,0.60
2018-04-30T16:53:54.343Z,0.90
2018-04-30T16:56:20.896Z,0.80
2018-04-30T16:58:47.487Z,0.93
2018-04-30T17:01:14.054Z,0.80
2018-04-30T17:03:40.655Z,1.17
2018-04-30T17:06:07.217Z,0.60
2018-04-30T17:08:33.798Z,0.80
2018-04-30T17:11:00.383Z,1.93
2018-04-30T17:13:26.947Z,2.50
2018-04-30T17:15:53.525Z,2.20
2018-04-30T17:18:20.126Z,3.20
2018-04-30T17:20:46.693Z,1.77
2018-04-30T17:23:13.289Z,4.03
2018-04-30T17:25:39.871Z,1.40
2018-04-30T17:28:06.489Z,1.93
2018-04-30T17:30:33.087Z,1.57
2018-04-30T17:32:59.629Z,6.80
2018-04-30T17:35:26.201Z,1.50
2018-04-30T17:37:52.774Z,1.37
2018-04-30T17:40:19.349Z,0.90
2018-04-30T17:42:45.918Z,0.90
2018-04-30T17:45:12.490Z,1.97
2018-04-30T17:47:39.062Z,0.97
2018-04-30T17:50:05.633Z,0.80
2018-04-30T17:52:32.230Z,0.80
2018-04-30T17:54:58.790Z,0.90
2018-04-30T17:57:25.390Z,0.83
2018-04-30T17:59:52.023Z,3.70
2018-04-30T18:02:18.539Z,0.80
2018-04-30T18:04:45.098Z,0.80
2018-04-30T18:07:11.715Z,1.00
2018-04-30T18:09:38.291Z,1.23
2018-04-30T18:12:04.857Z,0.70
2018-04-30T18:14:31.433Z,0.80
2018-04-30T18:16:58.099Z,0.90
2018-04-30T18:19:24.822Z,0.87
2018-04-30T18:21:51.369Z,1.03
2018-04-30T18:24:17.960Z,7.97
2018-04-30T18:26:44.604Z,1.60
2018-04-30T18:29:11.096Z,0.80
2018-04-30T18:31:37.669Z,0.70
2018-04-30T18:34:04.261Z,0.77
2018-04-30T18:36:30.837Z,0.90
2018-04-30T18:38:57.408Z,1.13
2018-04-30T18:41:23.966Z,2.40
2018-04-30T18:43:50.541Z,1.67
2018-04-30T18:46:17.157Z,0.60
2018-04-30T18:48:43.778Z,0.70
2018-04-30T18:51:10.351Z,0.60
2018-04-30T18:53:36.922Z,0.73
2018-04-30T18:56:03.498Z,0.70
2018-04-30T18:58:30.065Z,0.77
2018-04-30T19:00:56.641Z,0.67
2018-04-30T19:03:23.234Z,1.63
2018-04-30T19:05:49.792Z,1.20
2018-04-30T19:08:16.365Z,0.70
2018-04-30T19:10:42.944Z,0.70
2018-04-30T19:13:09.509Z,0.60
2018-04-30T19:15:36.109Z,0.60
2018-04-30T19:18:02.702Z,1.93
2018-04-30T19:20:29.265Z,1.67
2018-04-30T19:22:55.897Z,1.27
2018-04-30T19:25:22.462Z,0.93
2018-04-30T19:27:49.041Z,1.43
2018-04-30T19:30:15.610Z,0.83
2018-04-30T19:32:42.193Z,1.80
2018-04-30T19:35:08.764Z,0.70
2018-04-30T19:37:35.334Z,1.37
2018-04-30T19:40:01.923Z,0.70
2018-04-30T19:42:28.481Z,6.33
2018-04-30T19:44:55.049Z,1.23
2018-04-30T19:47:22.373Z,1.80
2018-04-30T19:49:48.939Z,2.30
2018-04-30T19:52:15.513Z,1.23
2018-04-30T19:54:42.089Z,1.53
2018-04-30T19:57:08.822Z,0.60
2018-04-30T19:59:35.401Z,2.40
2018-04-30T20:02:01.966Z,2.30
2018-04-30T20:04:28.552Z,0.90
2018-04-30T20:06:55.120Z,2.07
2018-04-30T20:09:21.699Z,2.00
2018-04-30T20:11:48.257Z,2.87
2018-04-30T20:14:14.821Z,1.90
2018-04-30T20:16:41.411Z,2.20
2018-04-30T20:19:07.997Z,0.60
2018-04-30T20:21:34.577Z,0.60
2018-04-30T20:24:01.150Z,1.17
2018-04-30T20:26:27.725Z,4.37
2018-04-30T20:28:54.293Z,1.00
2018-04-30T20:31:20.964Z,0.93
2018-04-30T20:33:47.533Z,0.70
2018-04-30T20:36:14.120Z,2.40
2018-04-30T20:38:40.684Z,2.10
2018-04-30T20:41:07.265Z,2.20
2018-04-30T20:43:33.842Z,4.63
2018-04-30T20:46:00.409Z,0.50
2018-04-30T20:48:27.011Z,3.60
2018-04-30T20:50:53.565Z,3.53
2018-04-30T20:53:20.150Z,1.83
2018-04-30T20:55:46.721Z,0.60
2018-04-30T20:58:13.297Z,0.50
2018-04-30T21:00:39.968Z,2.20
2018-04-30T21:03:06.529Z,0.60
2018-04-30T21:05:33.123Z,0.80
2018-04-30T21:07:59.688Z,7.83
2018-04-30T21:10:26.258Z,0.70
2018-04-30T21:12:52.834Z,1.17
2018-04-30T21:15:19.429Z,1.93
2018-04-30T21:17:45.985Z,2.00
2018-04-30T21:20:12.561Z,0.63
2018-04-30T21:22:39.133Z,3.47
2018-04-30T21:25:05.741Z,5.13
2018-04-30T21:27:33.149Z,0.60
2018-04-30T21:29:59.720Z,0.80
2018-04-30T21:32:26.293Z,0.83
2018-04-30T21:34:52.862Z,4.00
2018-04-30T21:37:19.441Z,2.63
2018-04-30T21:39:46.005Z,1.70
2018-04-30T21:42:12.581Z,0.80
2018-04-30T21:44:39.146Z,0.70
2018-04-30T21:47:05.726Z,1.57
2018-04-30T21:49:32.295Z,0.70
2018-04-30T21:51:58.884Z,1.27
2018-04-30T21:54:25.486Z,1.10
2018-04-30T21:56:52.021Z,0.63
2018-04-30T21:59:18.590Z,1.80
2018-04-30T22:01:45.162Z,3.13
2018-04-30T22:04:11.753Z,0.87
2018-04-30T22:06:38.327Z,0.60
2018-04-30T22:09:04.890Z,0.60
2018-04-30T22:11:31.462Z,1.33
2018-04-30T22:13:58.050Z,1.10
2018-04-30T22:16:24.618Z,0.70
2018-04-30T22:18:51.470Z,5.10
2018-04-30T22:21:18.050Z,0.70
2018-04-30T22:23:44.617Z,0.63
2018-04-30T22:26:11.231Z,2.37
2018-04-30T22:28:37.793Z,2.67
2018-04-30T22:31:04.370Z,0.90
2018-04-30T22:33:30.943Z,0.70
2018-04-30T22:35:57.519Z,0.70
2018-04-30T22:38:24.086Z,0.70
2018-04-30T22:40:50.672Z,1.43
2018-04-30T22:43:17.307Z,3.40
2018-04-30T22:45:43.878Z,1.90
2018-04-30T22:48:10.453Z,0.50
2018-04-30T22:50:37.033Z,1.87
2018-04-30T22:53:03.601Z,0.67
2018-04-30T22:55:30.166Z,1.37
2018-04-30T22:57:56.737Z,0.90
2018-04-30T23:00:26.006Z,2.63
2018-04-30T23:02:52.663Z,2.73
2018-04-30T23:05:19.142Z,0.50
2018-04-30T23:07:45.712Z,0.67
2018-04-30T23:10:12.273Z,0.53
2018-04-30T23:12:38.855Z,0.60
2018-04-30T23:15:05.419Z,0.50
2018-04-30T23:17:32.285Z,2.00
2018-04-30T23:19:58.852Z,0.60
2018-04-30T23:22:27.284Z,0.50
2018-04-30T23:24:53.853Z,0.60
2018-04-30T23:27:20.433Z,0.67
2018-04-30T23:29:47.001Z,1.63
2018-04-30T23:32:13.565Z,5.50
2018-04-30T23:34:40.139Z,1.37
2018-04-30T23:37:06.705Z,0.50
2018-04-30T23:39:33.293Z,0.60
2018-04-30T23:41:59.873Z,0.67
2018-04-30T23:44:26.468Z,0.57
2018-04-30T23:46:53.034Z,0.43
2018-04-30T23:49:19.599Z,1.43
2018-04-30T23:51:46.165Z,0.50
2018-04-30T23:54:12.737Z,0.60
2018-04-30T23:56:39.454Z,0.50
2018-04-30T23:59:06.073Z,0.50
